Time;durP1;ratioP1;P1;durP2;ratioP2;P2;SDS_P1;SDS_P2;PMS_P1;PMS_P2;Temp;Humidity;BMP_temperature;BMP_pressure;BME280_temperature;BME280_humidity;BME280_pressure;Samples;Min_cycle;Max_cycle;Signal;HPM_P1;HPM_P2
2021/08/13 00:02:09;;;;;;;12.30;11.10;;;;;;;;;;5116825;27;20475;-68
2021/08/13 00:04:35;;;;;;;13.60;11.82;;;;;;;;;;5109552;27;20040;-68
2021/08/13 00:07:01;;;;;;;12.02;10.90;;;;;;;;;;5119348;27;20035;-68
2021/08/13 00:09:27;;;;;;;13.90;12.38;;;;;;;;;;5094937;28;20449;-68
2021/08/13 00:11:54;;;;;;;14.02;12.57;;;;;;;;;;5111558;27;20334;-68
2021/08/13 00:14:21;;;;;;;12.85;11.65;;;;;;;;;;5120957;27;20051;-68
2021/08/13 00:16:47;;;;;;;13.85;12.50;;;;;;;;;;5112846;27;20472;-68
2021/08/13 00:19:13;;;;;;;13.52;12.10;;;;;;;;;;5115489;27;20059;-67
2021/08/13 00:21:41;;;;;;;14.02;12.63;;;;;;;;;;5110430;27;20043;-68
2021/08/13 00:24:07;;;;;;;13.27;11.98;;;;;;;;;;5116714;27;20344;-68
2021/08/13 00:26:33;;;;;;;13.32;11.45;;;;;;;;;;5110958;27;20042;-68
2021/08/13 00:29:00;;;;;;;13.57;12.38;;;;;;;;;;5112337;27;20035;-68
2021/08/13 00:31:26;;;;;;;14.40;12.90;;;;;;;;;;5108820;27;20078;-68
2021/08/13 00:33:53;;;;;;;14.75;12.80;;;;;;;;;;5116294;27;20047;-67
2021/08/13 00:36:19;;;;;;;14.50;13.00;;;;;;;;;;5100788;27;20043;-67
2021/08/13 00:38:45;;;;;;;12.77;11.48;;;;;;;;;;5116790;27;20035;-68
2021/08/13 00:41:12;;;;;;;16.17;13.60;;;;;;;;;;5109345;27;20101;-68
2021/08/13 00:43:38;;;;;;;13.13;11.82;;;;;;;;;;5111587;27;20035;-68
2021/08/13 00:46:04;;;;;;;13.27;12.05;;;;;;;;;;5109192;27;20093;-68
2021/08/13 00:48:30;;;;;;;14.30;12.90;;;;;;;;;;5097000;28;20105;-68
2021/08/13 00:50:57;;;;;;;14.18;12.77;;;;;;;;;;5115016;27;20035;-68
2021/08/13 00:53:23;;;;;;;14.52;12.40;;;;;;;;;;5103917;27;20438;-68
2021/08/13 00:55:51;;;;;;;12.82;11.57;;;;;;;;;;5115961;27;20036;-68
2021/08/13 00:58:18;;;;;;;13.13;11.75;;;;;;;;;;5110933;27;20403;-68
2021/08/13 01:00:45;;;;;;;14.02;12.57;;;;;;;;;;5114540;27;20130;-68
2021/08/13 01:03:11;;;;;;;14.80;13.40;;;;;;;;;;5106991;27;20486;-68
2021/08/13 01:05:37;;;;;;;14.73;13.23;;;;;;;;;;5117139;27;20105;-68
2021/08/13 01:08:03;;;;;;;13.55;12.13;;;;;;;;;;5110347;27;20035;-68
2021/08/13 01:10:32;;;;;;;13.93;12.52;;;;;;;;;;5113283;27;20415;-68
2021/08/13 01:13:15;;;;;;;14.75;13.35;;;;;;;;;;5099990;27;20044;-68
2021/08/13 01:15:43;;;;;;;14.20;12.35;;;;;;;;;;5115221;27;20089;-68
2021/08/13 01:18:12;;;;;;;13.63;12.02;;;;;;;;;;5091728;28;20063;-68
2021/08/13 01:20:53;;;;;;;14.13;12.85;;;;;;;;;;5112756;27;20479;-68
2021/08/13 01:23:26;;;;;;;14.10;12.70;;;;;;;;;;5104566;27;20489;-68
2021/08/13 01:25:55;;;;;;;13.00;11.63;;;;;;;;;;5117411;27;20491;-67
2021/08/13 01:28:40;;;;;;;12.35;11.15;;;;;;;;;;5107360;27;20763;-67
2021/08/13 01:31:26;;;;;;;14.02;12.73;;;;;;;;;;5112899;27;20027;-67
2021/08/13 01:33:58;;;;;;;14.43;13.02;;;;;;;;;;5101575;27;20495;-67
2021/08/13 01:36:26;;;;;;;12.90;11.70;;;;;;;;;;5110590;27;20062;-67
2021/08/13 01:38:53;;;;;;;13.93;12.15;;;;;;;;;;5110135;27;20058;-67
2021/08/13 01:41:19;;;;;;;13.07;11.65;;;;;;;;;;5117141;27;20149;-67
2021/08/13 01:43:46;;;;;;;12.07;10.95;;;;;;;;;;5101114;27;20043;-68
2021/08/13 01:46:12;;;;;;;13.98;11.18;;;;;;;;;;5114032;27;20040;-68
2021/08/13 01:48:39;;;;;;;12.45;11.25;;;;;;;;;;5109360;27;20039;-68
2021/08/13 01:51:06;;;;;;;11.95;10.73;;;;;;;;;;5112715;27;20359;-68
2021/08/13 01:53:33;;;;;;;14.02;12.63;;;;;;;;;;5108421;27;20050;-67
2021/08/13 01:55:59;;;;;;;15.30;13.80;;;;;;;;;;5108746;27;20043;-67
2021/08/13 01:58:26;;;;;;;14.38;13.07;;;;;;;;;;5115574;27;20447;-67
2021/08/13 02:00:53;;;;;;;13.65;12.35;;;;;;;;;;5107542;27;20497;-67
2021/08/13 02:03:19;;;;;;;12.70;11.50;;;;;;;;;;5110348;27;20519;-67
2021/08/13 02:05:48;;;;;;;13.77;12.23;;;;;;;;;;5110015;27;20124;-67
2021/08/13 02:08:15;;;;;;;12.70;11.48;;;;;;;;;;5110790;27;20040;-67
2021/08/13 02:10:43;;;;;;;12.55;11.25;;;;;;;;;;5098918;27;20044;-67
2021/08/13 02:13:09;;;;;;;11.82;10.73;;;;;;;;;;5114264;27;20100;-67
2021/08/13 02:15:36;;;;;;;12.82;11.45;;;;;;;;;;5112538;27;20035;-67
2021/08/13 02:18:06;;;;;;;11.85;10.60;;;;;;;;;;5111045;28;20104;-67
2021/08/13 02:20:33;;;;;;;12.60;11.40;;;;;;;;;;5104458;28;20140;-67
2021/08/13 02:22:59;;;;;;;13.45;11.63;;;;;;;;;;5116352;28;20039;-67
2021/08/13 02:25:25;;;;;;;13.55;12.13;;;;;;;;;;5104752;28;20157;-67
2021/08/13 02:27:51;;;;;;;13.32;12.02;;;;;;;;;;5111187;28;20043;-67
2021/08/13 02:30:18;;;;;;;13.10;11.65;;;;;;;;;;5109503;28;20051;-67
2021/08/13 02:32:45;;;;;;;14.05;12.55;;;;;;;;;;5118471;28;20043;-67
2021/08/13 02:35:12;;;;;;;14.15;12.63;;;;;;;;;;5115366;28;20039;-67
2021/08/13 02:37:55;;;;;;;14.35;12.95;;;;;;;;;;5101156;28;20036;-67
2021/08/13 02:40:29;;;;;;;14.27;12.43;;;;;;;;;;5114320;28;20143;-67
2021/08/13 02:43:16;;;;;;;13.60;12.20;;;;;;;;;;5114868;28;20036;-67
2021/08/13 02:45:45;;;;;;;15.18;13.43;;;;;;;;;;5111875;28;20352;-67
2021/08/13 02:48:11;;;;;;;13.70;12.32;;;;;;;;;;5114185;28;20036;-67
2021/08/13 02:50:40;;;;;;;17.45;13.50;;;;;;;;;;5115102;28;20096;-67
2021/08/13 02:53:08;;;;;;;13.25;11.93;;;;;;;;;;5113153;28;20081;-67
2021/08/13 02:55:36;;;;;;;14.30;12.77;;;;;;;;;;5100194;28;20054;-67
2021/08/13 02:58:07;;;;;;;15.18;13.63;;;;;;;;;;5108076;28;20044;-67
2021/08/13 03:00:36;;;;;;;14.55;13.15;;;;;;;;;;5109674;28;20118;-67
2021/08/13 03:03:02;;;;;;;14.00;12.70;;;;;;;;;;5106784;28;20074;-67
2021/08/13 03:05:30;;;;;;;15.32;13.73;;;;;;;;;;5115635;28;20059;-67
2021/08/13 03:07:57;;;;;;;18.52;16.08;;;;;;;;;;5101109;28;20037;-67
2021/08/13 03:10:23;;;;;;;17.30;15.43;;;;;;;;;;5112860;28;20527;-67
2021/08/13 03:12:51;;;;;;;19.90;16.85;;;;;;;;;;5105510;28;20104;-67
2021/08/13 03:15:18;;;;;;;17.25;15.43;;;;;;;;;;5110103;28;20111;-67
2021/08/13 03:17:45;;;;;;;16.27;14.68;;;;;;;;;;5105540;28;20039;-67
2021/08/13 03:20:11;;;;;;;16.52;14.70;;;;;;;;;;5116647;28;20150;-67
2021/08/13 03:22:37;;;;;;;17.77;15.80;;;;;;;;;;5108007;27;20127;-66
2021/08/13 03:25:05;;;;;;;16.35;14.65;;;;;;;;;;5112710;27;20040;-66
2021/08/13 03:27:31;;;;;;;19.90;17.30;;;;;;;;;;5111395;27;20036;-67
2021/08/13 03:29:57;;;;;;;16.15;14.25;;;;;;;;;;5117368;27;20472;-66
2021/08/13 03:32:23;;;;;;;17.08;14.65;;;;;;;;;;5118397;27;20066;-66
2021/08/13 03:34:49;;;;;;;15.80;14.15;;;;;;;;;;5103564;27;20554;-66
2021/08/13 03:37:16;;;;;;;14.75;13.18;;;;;;;;;;5115699;27;20533;-66
2021/08/13 03:39:43;;;;;;;18.27;16.20;;;;;;;;;;5115828;27;20426;-66
2021/08/13 03:42:09;;;;;;;17.10;13.75;;;;;;;;;;5113547;27;20039;-67
2021/08/13 03:44:35;;;;;;;20.40;15.93;;;;;;;;;;5090666;27;20082;-67
2021/08/13 03:47:01;;;;;;;20.75;16.67;;;;;;;;;;5120207;27;20043;-67
2021/08/13 03:49:27;;;;;;;18.73;16.70;;;;;;;;;;5109896;27;20045;-67
2021/08/13 03:51:56;;;;;;;18.23;16.42;;;;;;;;;;5115228;27;20118;-67
2021/08/13 03:54:23;;;;;;;16.63;14.57;;;;;;;;;;5108010;27;20061;-67
2021/08/13 03:56:49;;;;;;;14.23;12.82;;;;;;;;;;5119503;27;20586;-67
2021/08/13 03:59:15;;;;;;;16.70;14.95;;;;;;;;;;5110563;27;20043;-67
2021/08/13 04:01:41;;;;;;;16.33;14.63;;;;;;;;;;5111285;27;20032;-67
2021/08/13 04:04:07;;;;;;;17.23;15.43;;;;;;;;;;5112254;27;20051;-66
2021/08/13 04:06:34;;;;;;;16.90;15.25;;;;;;;;;;5117302;27;20054;-66
2021/08/13 04:09:00;;;;;;;16.90;14.70;;;;;;;;;;5105557;27;20080;-67
2021/08/13 04:11:26;;;;;;;17.77;15.98;;;;;;;;;;5113890;27;20114;-67
2021/08/13 04:13:52;;;;;;;16.58;14.70;;;;;;;;;;5120760;27;20046;-67
2021/08/13 04:16:19;;;;;;;15.52;13.95;;;;;;;;;;5107272;27;20396;-67
2021/08/13 04:18:46;;;;;;;17.83;14.93;;;;;;;;;;5109232;27;20050;-67
2021/08/13 04:21:12;;;;;;;19.25;17.25;;;;;;;;;;5113913;27;21088;-67
2021/08/13 04:23:38;;;;;;;18.27;16.38;;;;;;;;;;5120090;27;20071;-67
2021/08/13 04:26:04;;;;;;;16.25;14.65;;;;;;;;;;5108567;27;20047;-67
2021/08/13 04:28:32;;;;;;;17.45;14.90;;;;;;;;;;5112260;27;20090;-67
2021/08/13 04:30:59;;;;;;;18.48;16.50;;;;;;;;;;5111445;27;20537;-67
2021/08/13 04:33:25;;;;;;;17.38;15.50;;;;;;;;;;5116980;27;20053;-67
2021/08/13 04:35:51;;;;;;;19.80;16.38;;;;;;;;;;5106835;27;20054;-67
2021/08/13 04:38:18;;;;;;;17.65;15.90;;;;;;;;;;5115992;27;20083;-67
2021/08/13 04:40:45;;;;;;;18.08;16.15;;;;;;;;;;5107179;27;20036;-67
2021/08/13 04:43:12;;;;;;;18.88;16.42;;;;;;;;;;5112281;27;20574;-67
2021/08/13 04:45:38;;;;;;;18.55;16.42;;;;;;;;;;5104797;27;20446;-67
2021/08/13 04:48:04;;;;;;;18.45;16.60;;;;;;;;;;5117350;27;20490;-67
2021/08/13 04:50:32;;;;;;;19.70;17.45;;;;;;;;;;5112633;27;20040;-67
2021/08/13 04:52:59;;;;;;;19.33;17.40;;;;;;;;;;5111191;27;20353;-67
2021/08/13 04:55:25;;;;;;;19.15;17.17;;;;;;;;;;5110610;27;20149;-67
2021/08/13 04:57:52;;;;;;;19.92;17.65;;;;;;;;;;5108360;27;20028;-67
2021/08/13 05:00:20;;;;;;;19.35;17.33;;;;;;;;;;5118531;27;20043;-67
2021/08/13 05:02:46;;;;;;;20.52;17.83;;;;;;;;;;5108011;27;20035;-67
2021/08/13 05:05:22;;;;;;;21.55;19.23;;;;;;;;;;5116645;27;20052;-67
2021/08/13 05:07:49;;;;;;;22.33;19.20;;;;;;;;;;5110391;27;20040;-67
2021/08/13 05:10:16;;;;;;;22.40;19.58;;;;;;;;;;5113315;27;20090;-67
2021/08/13 05:12:43;;;;;;;27.08;21.65;;;;;;;;;;5089503;27;20515;-67
2021/08/13 05:15:10;;;;;;;23.30;20.80;;;;;;;;;;5113025;27;20035;-67
2021/08/13 05:17:38;;;;;;;23.05;20.05;;;;;;;;;;5106374;27;20125;-67
2021/08/13 05:20:05;;;;;;;23.13;20.17;;;;;;;;;;5113275;27;20035;-67
2021/08/13 05:22:33;;;;;;;22.92;20.45;;;;;;;;;;5108253;27;20051;-67
2021/08/13 05:25:04;;;;;;;22.40;20.00;;;;;;;;;;5112911;27;20027;-67
2021/08/13 05:27:37;;;;;;;22.02;19.63;;;;;;;;;;5111800;27;20038;-67
2021/08/13 05:30:05;;;;;;;24.92;22.27;;;;;;;;;;5115783;27;20059;-67
2021/08/13 05:32:32;;;;;;;23.45;21.00;;;;;;;;;;5105215;27;20047;-67
2021/08/13 05:34:58;;;;;;;23.08;20.55;;;;;;;;;;5109779;27;20032;-67
2021/08/13 05:37:24;;;;;;;23.27;20.95;;;;;;;;;;5109051;27;20051;-68
2021/08/13 05:40:03;;;;;;;21.85;19.63;;;;;;;;;;5111541;27;20100;-67
2021/08/13 05:42:30;;;;;;;22.95;20.48;;;;;;;;;;5108173;27;20039;-68
2021/08/13 05:44:56;;;;;;;23.17;20.70;;;;;;;;;;5109923;27;20526;-67
2021/08/13 05:47:22;;;;;;;24.13;19.88;;;;;;;;;;5115632;27;20089;-67
2021/08/13 05:49:48;;;;;;;22.13;19.60;;;;;;;;;;5104715;27;20031;-67
2021/08/13 05:52:14;;;;;;;21.02;18.92;;;;;;;;;;5111257;27;21093;-67
2021/08/13 05:54:41;;;;;;;23.42;20.15;;;;;;;;;;5114385;27;20047;-68
2021/08/13 05:57:07;;;;;;;21.38;19.27;;;;;;;;;;5112672;27;20035;-68
2021/08/13 05:59:33;;;;;;;21.58;19.38;;;;;;;;;;5106917;27;20035;-68
2021/08/13 06:01:59;;;;;;;24.80;20.55;;;;;;;;;;5116055;27;20036;-68
2021/08/13 06:04:25;;;;;;;22.30;20.05;;;;;;;;;;5110072;27;20528;-68
2021/08/13 06:06:51;;;;;;;21.63;19.33;;;;;;;;;;5108045;27;20043;-68
2021/08/13 06:09:17;;;;;;;23.23;20.08;;;;;;;;;;5103300;28;20616;-68
2021/08/13 06:11:44;;;;;;;21.02;18.83;;;;;;;;;;5115205;27;20111;-68
2021/08/13 06:14:10;;;;;;;23.00;20.73;;;;;;;;;;5109339;27;20394;-68
2021/08/13 06:16:36;;;;;;;22.23;19.80;;;;;;;;;;5110924;28;20039;-68
2021/08/13 06:19:02;;;;;;;23.25;20.75;;;;;;;;;;5089353;28;20051;-69
2021/08/13 06:21:32;;;;;;;21.10;18.63;;;;;;;;;;5115473;28;20471;-68
2021/08/13 06:23:58;;;;;;;23.30;20.77;;;;;;;;;;5106568;28;20038;-69
2021/08/13 06:26:24;;;;;;;25.35;21.35;;;;;;;;;;5104703;28;20410;-69
2021/08/13 06:28:50;;;;;;;24.02;20.98;;;;;;;;;;5111232;28;20043;-68
2021/08/13 06:31:16;;;;;;;22.35;20.08;;;;;;;;;;5093433;28;20047;-69
2021/08/13 06:33:42;;;;;;;22.77;20.40;;;;;;;;;;5110263;28;20478;-69
2021/08/13 06:36:10;;;;;;;24.25;21.65;;;;;;;;;;5105868;28;20127;-68
2021/08/13 06:38:36;;;;;;;25.95;22.38;;;;;;;;;;5117063;28;20038;-68
2021/08/13 06:41:03;;;;;;;26.63;23.42;;;;;;;;;;5107035;28;20040;-68
2021/08/13 06:43:29;;;;;;;26.50;23.08;;;;;;;;;;5114207;28;20035;-68
2021/08/13 06:45:56;;;;;;;24.88;22.20;;;;;;;;;;5108250;28;20038;-68
2021/08/13 06:48:22;;;;;;;25.67;22.27;;;;;;;;;;5114612;28;20721;-68
2021/08/13 06:50:48;;;;;;;26.10;22.33;;;;;;;;;;5102246;28;20043;-68
2021/08/13 06:53:14;;;;;;;25.65;22.92;;;;;;;;;;5092353;28;20036;-68
2021/08/13 06:55:40;;;;;;;25.75;21.80;;;;;;;;;;5109657;28;20040;-69
2021/08/13 06:58:06;;;;;;;23.73;21.20;;;;;;;;;;5117102;27;20100;-69
2021/08/13 07:00:32;;;;;;;24.38;20.83;;;;;;;;;;5109574;27;20110;-69
2021/08/13 07:02:59;;;;;;;22.92;20.52;;;;;;;;;;5114321;27;20035;-69
2021/08/13 07:05:25;;;;;;;20.90;18.70;;;;;;;;;;5121510;27;20031;-69
2021/08/13 07:07:51;;;;;;;23.17;18.02;;;;;;;;;;5110826;27;20228;-69
2021/08/13 07:10:17;;;;;;;19.88;17.88;;;;;;;;;;5109509;27;20044;-69
2021/08/13 07:12:43;;;;;;;18.52;16.73;;;;;;;;;;5113778;27;20471;-69
2021/08/13 07:15:10;;;;;;;18.15;15.98;;;;;;;;;;5121650;27;20046;-69
2021/08/13 07:17:36;;;;;;;18.05;15.02;;;;;;;;;;5107594;27;20036;-69
2021/08/13 07:20:07;;;;;;;18.50;15.75;;;;;;;;;;5110979;27;20111;-69
2021/08/13 07:22:33;;;;;;;16.67;14.38;;;;;;;;;;5111219;27;20043;-69
2021/08/13 07:25:00;;;;;;;18.52;16.23;;;;;;;;;;5118550;27;20063;-69
2021/08/13 07:27:29;;;;;;;16.65;14.93;;;;;;;;;;5106944;27;20035;-69
2021/08/13 07:29:55;;;;;;;16.88;15.07;;;;;;;;;;5115482;27;20035;-69
2021/08/13 07:32:21;;;;;;;17.77;15.27;;;;;;;;;;5095956;27;20662;-69
2021/08/13 07:34:47;;;;;;;16.30;14.65;;;;;;;;;;5115716;27;20103;-69
2021/08/13 07:37:13;;;;;;;14.90;13.02;;;;;;;;;;5103856;27;20043;-69
2021/08/13 07:39:39;;;;;;;14.70;13.15;;;;;;;;;;5116361;27;20604;-69
2021/08/13 07:42:06;;;;;;;14.23;12.73;;;;;;;;;;5111245;27;20044;-69
2021/08/13 07:44:32;;;;;;;13.13;11.82;;;;;;;;;;5112566;27;20122;-69
2021/08/13 07:46:58;;;;;;;12.88;11.40;;;;;;;;;;5112694;27;20543;-69
2021/08/13 07:49:24;;;;;;;11.82;9.77;;;;;;;;;;5111535;27;20069;-69
2021/08/13 07:51:51;;;;;;;12.70;8.90;;;;;;;;;;5118800;27;20031;-69
2021/08/13 07:54:17;;;;;;;11.85;9.02;;;;;;;;;;5106774;27;20091;-69
2021/08/13 07:56:43;;;;;;;9.77;8.38;;;;;;;;;;5114033;27;20054;-70
2021/08/13 07:59:09;;;;;;;9.93;8.88;;;;;;;;;;5115269;27;20067;-70
2021/08/13 08:01:35;;;;;;;9.07;8.10;;;;;;;;;;5114290;27;20471;-69
2021/08/13 08:04:01;;;;;;;9.65;8.60;;;;;;;;;;5105508;27;20053;-69
2021/08/13 08:06:29;;;;;;;9.35;8.30;;;;;;;;;;5117073;27;20475;-69
2021/08/13 08:08:56;;;;;;;13.25;8.30;;;;;;;;;;5111398;27;20126;-70
2021/08/13 08:11:22;;;;;;;11.02;9.65;;;;;;;;;;5111006;27;20044;-70
2021/08/13 08:13:48;;;;;;;11.38;10.27;;;;;;;;;;5109548;27;20039;-70
2021/08/13 08:16:14;;;;;;;13.27;10.27;;;;;;;;;;5119844;27;20415;-70
2021/08/13 08:18:40;;;;;;;13.48;10.57;;;;;;;;;;5105316;27;20032;-70
2021/08/13 08:21:07;;;;;;;12.25;11.05;;;;;;;;;;5111906;27;20034;-70
2021/08/13 08:23:33;;;;;;;12.57;10.45;;;;;;;;;;5111397;27;20036;-70
2021/08/13 08:25:59;;;;;;;11.45;10.23;;;;;;;;;;5110240;27;20043;-70
2021/08/13 08:28:25;;;;;;;11.20;9.90;;;;;;;;;;5118491;27;20039;-70
2021/08/13 08:30:51;;;;;;;9.68;8.63;;;;;;;;;;5109425;27;20219;-70
2021/08/13 08:33:17;;;;;;;10.73;9.63;;;;;;;;;;5118424;27;20089;-70
2021/08/13 08:35:43;;;;;;;11.35;9.05;;;;;;;;;;5109686;27;20431;-70
2021/08/13 08:38:10;;;;;;;10.70;9.20;;;;;;;;;;5112512;27;20031;-69
2021/08/13 08:40:37;;;;;;;10.27;9.20;;;;;;;;;;5108451;27;20427;-69
2021/08/13 08:43:05;;;;;;;10.52;9.48;;;;;;;;;;5117013;27;20141;-69
2021/08/13 08:45:32;;;;;;;10.73;9.73;;;;;;;;;;5106717;27;20039;-69
2021/08/13 08:48:00;;;;;;;11.10;9.55;;;;;;;;;;5079325;28;20052;-70
2021/08/13 08:50:27;;;;;;;10.48;8.82;;;;;;;;;;5112130;27;20118;-70
2021/08/13 08:52:53;;;;;;;10.70;9.60;;;;;;;;;;5118220;27;20532;-70
2021/08/13 08:55:19;;;;;;;9.13;8.23;;;;;;;;;;5105499;27;20040;-70
2021/08/13 08:57:46;;;;;;;9.32;7.22;;;;;;;;;;5110177;27;20055;-70
2021/08/13 09:00:14;;;;;;;7.85;6.97;;;;;;;;;;5110271;27;20039;-70
2021/08/13 09:02:44;;;;;;;10.50;7.40;;;;;;;;;;5116946;27;20039;-70
2021/08/13 09:05:11;;;;;;;9.25;7.47;;;;;;;;;;5112230;27;20053;-71
2021/08/13 09:07:37;;;;;;;7.82;7.03;;;;;;;;;;5090920;27;20039;-71
2021/08/13 09:10:04;;;;;;;6.88;5.97;;;;;;;;;;5116298;27;20051;-71
2021/08/13 09:12:32;;;;;;;8.63;7.18;;;;;;;;;;5110231;27;20112;-71
2021/08/13 09:14:58;;;;;;;8.32;6.72;;;;;;;;;;5105090;27;20081;-71
2021/08/13 09:17:28;;;;;;;8.65;7.18;;;;;;;;;;5113072;27;20046;-71
2021/08/13 09:19:54;;;;;;;7.20;6.50;;;;;;;;;;5116297;27;20043;-71
2021/08/13 09:22:21;;;;;;;6.95;6.10;;;;;;;;;;5084599;27;20563;-71
2021/08/13 09:24:51;;;;;;;9.10;6.28;;;;;;;;;;5110228;27;20108;-71
2021/08/13 09:27:22;;;;;;;7.75;6.10;;;;;;;;;;5108951;27;20617;-71
2021/08/13 09:30:07;;;;;;;6.57;5.43;;;;;;;;;;5114916;27;20510;-70
2021/08/13 09:32:34;;;;;;;10.50;5.88;;;;;;;;;;5109647;27;20027;-70
2021/08/13 09:35:00;;;;;;;7.68;6.07;;;;;;;;;;5109276;27;20066;-70
2021/08/13 09:37:26;;;;;;;6.47;5.63;;;;;;;;;;5107866;27;20040;-70
2021/08/13 09:39:53;;;;;;;13.23;6.07;;;;;;;;;;5088677;27;20487;-70
2021/08/13 09:42:19;;;;;;;7.72;6.07;;;;;;;;;;5090672;27;20429;-70
2021/08/13 09:44:58;;;;;;;8.45;5.03;;;;;;;;;;5109656;27;20050;-70
2021/08/13 09:47:37;;;;;;;6.88;4.50;;;;;;;;;;5107114;27;20040;-70
2021/08/13 09:50:03;;;;;;;6.93;4.88;;;;;;;;;;5118389;27;20377;-70
2021/08/13 09:52:30;;;;;;;7.40;4.65;;;;;;;;;;5099787;27;20067;-70
2021/08/13 09:55:07;;;;;;;4.50;3.97;;;;;;;;;;5113683;27;20076;-70
2021/08/13 09:57:44;;;;;;;5.47;4.03;;;;;;;;;;5106246;27;20050;-70
2021/08/13 10:00:11;;;;;;;6.88;4.00;;;;;;;;;;5114311;27;20035;-70
2021/08/13 10:02:40;;;;;;;5.80;3.58;;;;;;;;;;5108209;27;20061;-70
2021/08/13 10:05:17;;;;;;;5.07;4.07;;;;;;;;;;5110102;27;20044;-70
2021/08/13 10:07:47;;;;;;;6.07;3.72;;;;;;;;;;5114861;27;20479;-70
2021/08/13 10:10:13;;;;;;;6.38;3.60;;;;;;;;;;5114434;27;20158;-70
2021/08/13 10:12:46;;;;;;;5.55;3.78;;;;;;;;;;5108989;28;20472;-70
2021/08/13 10:15:27;;;;;;;6.75;3.67;;;;;;;;;;5107756;27;20427;-70
2021/08/13 10:17:53;;;;;;;4.38;3.38;;;;;;;;;;5113903;27;20078;-70
2021/08/13 10:20:19;;;;;;;6.43;4.00;;;;;;;;;;5110953;27;20075;-70
2021/08/13 10:22:46;;;;;;;7.65;3.70;;;;;;;;;;5112160;28;20036;-70
2021/08/13 10:25:12;;;;;;;4.90;3.15;;;;;;;;;;5104667;28;20039;-69
2021/08/13 10:27:38;;;;;;;7.18;3.47;;;;;;;;;;5116348;28;20044;-69
2021/08/13 10:30:05;;;;;;;6.50;3.42;;;;;;;;;;5103747;28;20138;-69
2021/08/13 10:32:32;;;;;;;6.20;3.65;;;;;;;;;;5112142;27;20110;-69
2021/08/13 10:34:58;;;;;;;6.70;3.05;;;;;;;;;;5106963;27;20110;-69
2021/08/13 10:37:26;;;;;;;6.25;3.70;;;;;;;;;;5117264;27;20078;-70
2021/08/13 10:39:54;;;;;;;6.15;3.50;;;;;;;;;;5114489;27;20487;-70
2021/08/13 10:42:21;;;;;;;5.57;3.17;;;;;;;;;;5117374;27;20040;-71
2021/08/13 10:44:54;;;;;;;4.53;3.20;;;;;;;;;;5110039;27;20419;-70
2021/08/13 10:47:22;;;;;;;4.47;3.28;;;;;;;;;;5122451;27;20062;-70
2021/08/13 10:49:49;;;;;;;5.53;3.30;;;;;;;;;;5105794;27;20040;-70
2021/08/13 10:52:15;;;;;;;6.40;3.65;;;;;;;;;;5113553;27;20456;-70
2021/08/13 10:54:42;;;;;;;6.50;3.80;;;;;;;;;;5113010;27;20040;-70
2021/08/13 10:57:09;;;;;;;6.78;3.75;;;;;;;;;;5119355;27;20045;-70
2021/08/13 10:59:41;;;;;;;6.82;3.90;;;;;;;;;;5113151;27;20035;-70
2021/08/13 11:02:10;;;;;;;5.05;3.80;;;;;;;;;;5108435;27;20077;-70
2021/08/13 11:04:40;;;;;;;5.95;3.90;;;;;;;;;;5116362;27;20040;-70
2021/08/13 11:07:06;;;;;;;8.48;4.00;;;;;;;;;;5114147;27;20454;-70
2021/08/13 11:09:36;;;;;;;7.60;3.85;;;;;;;;;;5111386;27;20047;-70
2021/08/13 11:12:04;;;;;;;6.13;4.05;;;;;;;;;;5107331;27;20036;-70
2021/08/13 11:14:31;;;;;;;7.05;4.03;;;;;;;;;;5083523;28;20047;-70
2021/08/13 11:16:57;;;;;;;6.50;3.92;;;;;;;;;;5113555;27;20038;-70
2021/08/13 11:19:24;;;;;;;7.25;3.35;;;;;;;;;;5112167;27;20036;-70
2021/08/13 11:21:53;;;;;;;5.72;4.00;;;;;;;;;;5110777;27;20070;-70
2021/08/13 11:24:27;;;;;;;6.43;4.30;;;;;;;;;;5117542;27;20055;-70
2021/08/13 11:26:53;;;;;;;7.88;4.05;;;;;;;;;;5109979;27;20039;-70
2021/08/13 11:29:25;;;;;;;6.43;4.20;;;;;;;;;;5119158;27;22934;-69
2021/08/13 11:31:51;;;;;;;6.57;3.67;;;;;;;;;;5112283;27;20275;-69
2021/08/13 11:34:37;;;;;;;7.70;3.92;;;;;;;;;;5119604;27;20139;-69
2021/08/13 11:37:04;;;;;;;6.15;3.72;;;;;;;;;;5107769;27;20050;-69
2021/08/13 11:39:37;;;;;;;5.85;3.17;;;;;;;;;;5115116;27;20395;-69
2021/08/13 11:42:07;;;;;;;6.15;2.72;;;;;;;;;;5105955;27;20055;-69
2021/08/13 11:44:34;;;;;;;5.60;2.72;;;;;;;;;;5120505;27;20044;-69
2021/08/13 11:47:01;;;;;;;6.72;3.03;;;;;;;;;;5109408;27;20069;-69
2021/08/13 11:49:27;;;;;;;8.95;3.03;;;;;;;;;;5115734;27;20447;-69
2021/08/13 11:51:54;;;;;;;5.00;2.35;;;;;;;;;;5114162;27;20026;-69
2021/08/13 11:54:26;;;;;;;7.18;2.75;;;;;;;;;;5116919;27;20047;-69
2021/08/13 11:56:52;;;;;;;7.35;2.83;;;;;;;;;;5113674;27;20406;-69
2021/08/13 11:59:18;;;;;;;6.32;2.33;;;;;;;;;;5107830;27;20080;-69
2021/08/13 12:01:52;;;;;;;6.35;2.67;;;;;;;;;;5122414;27;20067;-69
2021/08/13 12:04:19;;;;;;;7.00;2.40;;;;;;;;;;5112325;27;20035;-70
2021/08/13 12:07:05;;;;;;;5.70;2.55;;;;;;;;;;5113469;27;20039;-70
2021/08/13 12:09:32;;;;;;;5.95;2.60;;;;;;;;;;5078531;27;20043;-70
2021/08/13 12:11:59;;;;;;;5.25;2.58;;;;;;;;;;5113632;27;20079;-71
2021/08/13 12:14:25;;;;;;;7.53;2.38;;;;;;;;;;5112232;27;20322;-70
2021/08/13 12:16:54;;;;;;;6.82;2.33;;;;;;;;;;5110365;27;20040;-70
2021/08/13 12:19:21;;;;;;;6.22;2.53;;;;;;;;;;5105197;27;20035;-70
2021/08/13 12:21:54;;;;;;;7.90;2.40;;;;;;;;;;5118020;27;20070;-70
2021/08/13 12:24:29;;;;;;;5.20;2.13;;;;;;;;;;5103432;27;20062;-70
2021/08/13 12:26:57;;;;;;;6.95;2.30;;;;;;;;;;5087157;27;20102;-70
2021/08/13 12:29:24;;;;;;;7.63;2.47;;;;;;;;;;5109140;27;20038;-70
2021/08/13 12:31:54;;;;;;;6.40;2.25;;;;;;;;;;5116204;27;20538;-70
2021/08/13 12:34:20;;;;;;;6.43;2.53;;;;;;;;;;5106423;27;20053;-70
2021/08/13 12:36:47;;;;;;;8.43;2.67;;;;;;;;;;5110604;27;20024;-70
2021/08/13 12:39:21;;;;;;;8.77;2.47;;;;;;;;;;5107806;27;20455;-70
2021/08/13 12:41:47;;;;;;;6.45;2.15;;;;;;;;;;5117062;27;20035;-70
2021/08/13 12:44:13;;;;;;;7.97;2.75;;;;;;;;;;5100940;27;20449;-70
2021/08/13 12:46:39;;;;;;;7.65;2.05;;;;;;;;;;5111917;27;20415;-70
2021/08/13 12:49:06;;;;;;;6.53;2.35;;;;;;;;;;5076981;28;20048;-70
2021/08/13 12:51:32;;;;;;;7.75;2.35;;;;;;;;;;5115292;27;20045;-70
2021/08/13 12:53:59;;;;;;;9.32;2.50;;;;;;;;;;5116415;27;20039;-70
2021/08/13 12:56:25;;;;;;;8.60;2.90;;;;;;;;;;5110160;27;20096;-70
2021/08/13 12:58:52;;;;;;;8.30;2.50;;;;;;;;;;5119359;27;20042;-70
2021/08/13 13:01:32;;;;;;;7.28;3.25;;;;;;;;;;5107991;27;20040;-70
2021/08/13 13:04:08;;;;;;;7.05;2.53;;;;;;;;;;5104525;27;20111;-70
2021/08/13 13:06:34;;;;;;;7.22;2.20;;;;;;;;;;5081844;27;20519;-70
2021/08/13 13:09:00;;;;;;;7.65;2.78;;;;;;;;;;5116232;27;20126;-70
2021/08/13 13:11:31;;;;;;;7.93;2.55;;;;;;;;;;5110800;27;20038;-70
2021/08/13 13:13:59;;;;;;;7.00;2.30;;;;;;;;;;5111660;27;20476;-70
2021/08/13 13:16:26;;;;;;;5.90;2.55;;;;;;;;;;5105903;27;20115;-70
2021/08/13 13:18:52;;;;;;;8.68;3.15;;;;;;;;;;5120637;27;20043;-70
2021/08/13 13:21:22;;;;;;;6.80;2.28;;;;;;;;;;5106316;27;20040;-70
2021/08/13 13:23:48;;;;;;;8.18;2.58;;;;;;;;;;5111845;27;20048;-70
2021/08/13 13:26:14;;;;;;;11.77;3.15;;;;;;;;;;5109650;27;20039;-70
2021/08/13 13:28:40;;;;;;;9.23;2.22;;;;;;;;;;5115277;27;20483;-70
2021/08/13 13:31:17;;;;;;;7.53;2.53;;;;;;;;;;5105229;27;20114;-70
2021/08/13 13:33:43;;;;;;;7.45;2.53;;;;;;;;;;5113476;27;20047;-70
2021/08/13 13:36:10;;;;;;;10.25;2.58;;;;;;;;;;5107705;27;20119;-70
2021/08/13 13:38:41;;;;;;;9.20;2.67;;;;;;;;;;5111604;27;20142;-70
2021/08/13 13:41:07;;;;;;;6.43;2.38;;;;;;;;;;5102519;27;20115;-69
2021/08/13 13:43:34;;;;;;;7.20;2.25;;;;;;;;;;5108861;27;20039;-69
2021/08/13 13:46:01;;;;;;;8.55;2.28;;;;;;;;;;5117132;27;20118;-69
2021/08/13 13:48:27;;;;;;;5.95;1.95;;;;;;;;;;5108054;27;20044;-69
2021/08/13 13:50:54;;;;;;;7.30;2.20;;;;;;;;;;5111991;27;20036;-69
2021/08/13 13:53:21;;;;;;;7.47;2.28;;;;;;;;;;5110349;27;20040;-69
2021/08/13 13:55:47;;;;;;;7.22;2.45;;;;;;;;;;5116729;27;20474;-69
2021/08/13 13:58:13;;;;;;;8.40;2.38;;;;;;;;;;5104430;27;20498;-69
2021/08/13 14:00:39;;;;;;;7.97;2.53;;;;;;;;;;5113365;27;20107;-69
2021/08/13 14:03:06;;;;;;;9.05;2.35;;;;;;;;;;5112577;27;20035;-69
2021/08/13 14:05:32;;;;;;;8.13;2.45;;;;;;;;;;5115941;27;20067;-69
2021/08/13 14:07:58;;;;;;;6.78;2.28;;;;;;;;;;5106175;27;20073;-69
2021/08/13 14:10:27;;;;;;;6.15;2.05;;;;;;;;;;5112883;27;20499;-69
2021/08/13 14:12:59;;;;;;;7.38;2.35;;;;;;;;;;5109778;27;20065;-69
2021/08/13 14:15:26;;;;;;;8.60;2.67;;;;;;;;;;5114093;27;20039;-69
2021/08/13 14:17:53;;;;;;;7.43;2.40;;;;;;;;;;5104556;27;20039;-69
2021/08/13 14:20:19;;;;;;;9.48;2.70;;;;;;;;;;5115523;28;20038;-70
2021/08/13 14:22:46;;;;;;;6.85;2.38;;;;;;;;;;5109160;28;20035;-69
2021/08/13 14:25:14;;;;;;;7.97;2.80;;;;;;;;;;5107940;28;20035;-69
2021/08/13 14:27:40;;;;;;;10.73;3.35;;;;;;;;;;5112364;28;20484;-70
2021/08/13 14:30:07;;;;;;;7.65;2.38;;;;;;;;;;5110419;28;20063;-69
2021/08/13 14:32:34;;;;;;;8.75;2.70;;;;;;;;;;5115292;28;20114;-69